createdAt,value
2023-03-08T00:00:25.291Z,45.54
2023-03-08T00:02:53.866Z,44.89
2023-03-08T00:05:21.573Z,45.34
2023-03-08T00:07:49.264Z,45.58
2023-03-08T00:10:16.928Z,45.69
2023-03-08T00:12:45.964Z,45.60
2023-03-08T00:15:13.658Z,45.48
2023-03-08T00:17:41.335Z,45.78
2023-03-08T00:20:10.602Z,45.74
2023-03-08T00:22:38.374Z,45.96
2023-03-08T00:25:07.084Z,46.31
2023-03-08T00:27:34.826Z,46.45
2023-03-08T00:30:04.172Z,46.24
2023-03-08T00:32:31.877Z,45.96
2023-03-08T00:34:59.561Z,45.76
2023-03-08T00:37:27.232Z,46.03
2023-03-08T00:39:55.151Z,45.92
2023-03-08T00:42:23.296Z,45.97
2023-03-08T00:44:50.998Z,45.66
2023-03-08T00:47:20.031Z,45.69
2023-03-08T00:49:47.740Z,46.12
2023-03-08T00:52:15.457Z,46.15
2023-03-08T00:54:43.277Z,45.94
2023-03-08T00:57:10.933Z,46.13
2023-03-08T00:59:38.696Z,46.00
2023-03-08T01:02:06.830Z,46.35
2023-03-08T01:04:35.960Z,46.06
2023-03-08T01:07:03.623Z,46.02
2023-03-08T01:09:31.292Z,46.15
2023-03-08T01:11:59.333Z,45.96
2023-03-08T01:14:27.004Z,45.73
2023-03-08T01:16:54.676Z,46.06
2023-03-08T01:19:22.347Z,45.99
2023-03-08T01:21:51.360Z,46.02
2023-03-08T01:24:19.055Z,46.28
2023-03-08T01:26:46.724Z,46.14
2023-03-08T01:29:14.388Z,45.93
2023-03-08T01:31:42.054Z,46.16
2023-03-08T01:34:10.608Z,46.00
2023-03-08T01:36:38.328Z,46.00
2023-03-08T01:39:07.392Z,46.01
2023-03-08T01:41:35.096Z,46.12
2023-03-08T01:44:02.850Z,46.35
2023-03-08T01:46:30.766Z,46.23
2023-03-08T01:49:02.793Z,46.48
2023-03-08T01:51:33.104Z,46.25
2023-03-08T01:54:00.849Z,46.46
2023-03-08T01:56:29.878Z,46.41
2023-03-08T01:58:57.551Z,46.38
2023-03-08T02:01:25.299Z,46.41
2023-03-08T02:03:53.005Z,46.40
2023-03-08T02:06:20.699Z,46.70
2023-03-08T02:08:48.364Z,46.58
2023-03-08T02:11:16.068Z,46.56
2023-03-08T02:13:45.086Z,46.34
2023-03-08T02:16:14.506Z,46.49
2023-03-08T02:18:53.049Z,46.54
2023-03-08T02:21:20.771Z,46.59
2023-03-08T02:23:49.838Z,46.48
2023-03-08T02:26:17.571Z,46.39
2023-03-08T02:28:45.376Z,46.37
2023-03-08T02:31:13.274Z,46.59
2023-03-08T02:33:40.950Z,46.68
2023-03-08T02:36:09.593Z,46.81
2023-03-08T02:38:37.426Z,46.54
2023-03-08T02:41:06.810Z,46.35
2023-03-08T02:43:34.521Z,46.82
2023-03-08T02:46:02.514Z,46.96
2023-03-08T02:48:30.200Z,46.65
2023-03-08T02:50:57.842Z,46.73
2023-03-08T02:53:25.529Z,46.54
2023-03-08T02:55:53.186Z,46.77
2023-03-08T02:58:22.261Z,46.69
2023-03-08T03:00:49.972Z,46.60
2023-03-08T03:03:17.771Z,46.57
2023-03-08T03:05:45.528Z,46.69
2023-03-08T03:08:13.234Z,46.99
2023-03-08T03:10:41.685Z,46.82
2023-03-08T03:13:09.492Z,47.22
2023-03-08T03:15:40.206Z,47.08
2023-03-08T03:18:07.988Z,47.09
2023-03-08T03:20:35.703Z,47.26
2023-03-08T03:23:03.400Z,47.77
2023-03-08T03:25:31.123Z,47.43
2023-03-08T03:27:58.804Z,47.33
2023-03-08T03:30:26.468Z,47.29
2023-03-08T03:32:55.511Z,47.20
2023-03-08T03:35:23.214Z,47.19
2023-03-08T03:37:50.892Z,47.42
2023-03-08T03:40:18.667Z,47.36
2023-03-08T03:42:46.333Z,47.87
2023-03-08T03:45:13.979Z,47.59
2023-03-08T03:47:41.654Z,47.47
2023-03-08T03:50:12.018Z,47.43
2023-03-08T03:52:39.696Z,47.30
2023-03-08T03:55:09.098Z,47.52
2023-03-08T03:57:36.763Z,47.29
2023-03-08T04:00:05.845Z,47.50
2023-03-08T04:02:33.535Z,47.45
2023-03-08T04:05:01.227Z,47.42
2023-03-08T04:07:30.272Z,47.28
2023-03-08T04:09:58.014Z,47.27
2023-03-08T04:12:25.719Z,47.49
2023-03-08T04:14:54.269Z,47.45
2023-03-08T04:17:21.948Z,47.45
2023-03-08T04:19:50.028Z,47.08
2023-03-08T04:22:17.749Z,47.57
2023-03-08T04:24:46.782Z,47.40
2023-03-08T04:27:14.498Z,47.26
2023-03-08T04:29:42.156Z,47.27
2023-03-08T04:32:09.920Z,47.28
2023-03-08T04:34:37.659Z,47.39
2023-03-08T04:37:05.415Z,47.39
2023-03-08T04:39:33.135Z,47.36
2023-03-08T04:42:02.196Z,47.00
2023-03-08T04:44:30.023Z,47.33
2023-03-08T04:46:57.789Z,47.41
2023-03-08T04:49:25.800Z,47.18
2023-03-08T04:51:53.472Z,47.36
2023-03-08T04:54:21.192Z,47.65
2023-03-08T04:56:48.899Z,47.65
2023-03-08T04:59:17.914Z,47.50
2023-03-08T05:01:45.584Z,47.56
2023-03-08T05:04:13.233Z,47.64
2023-03-08T05:06:40.932Z,47.76
2023-03-08T05:09:08.600Z,47.37
2023-03-08T05:11:36.296Z,47.59
2023-03-08T05:14:03.990Z,47.61
2023-03-08T05:16:33.095Z,47.79
2023-03-08T05:19:00.801Z,47.32
2023-03-08T05:21:28.474Z,47.18
2023-03-08T05:23:56.143Z,47.50
2023-03-08T05:26:24.598Z,47.98
2023-03-08T05:28:52.259Z,48.35
2023-03-08T05:31:20.649Z,48.01
2023-03-08T05:33:50.994Z,47.72
2023-03-08T05:36:18.967Z,47.62
2023-03-08T05:38:46.671Z,47.27
2023-03-08T05:41:15.354Z,47.13
2023-03-08T05:43:43.060Z,47.10
2023-03-08T05:46:12.494Z,46.88
2023-03-08T05:48:40.725Z,47.14
2023-03-08T05:51:10.848Z,47.07
2023-03-08T05:53:38.575Z,46.89
2023-03-08T05:56:10.624Z,46.99
2023-03-08T05:58:38.495Z,48.07
2023-03-08T06:01:13.528Z,47.41
2023-03-08T06:03:41.465Z,47.97
2023-03-08T06:06:10.737Z,47.92
2023-03-08T06:08:38.426Z,47.72
2023-03-08T06:11:06.250Z,47.80
2023-03-08T06:13:33.966Z,48.01
2023-03-08T06:16:01.721Z,47.80
2023-03-08T06:18:29.468Z,47.19
2023-03-08T06:21:00.375Z,47.27
2023-03-08T06:23:29.751Z,47.24
2023-03-08T06:25:57.553Z,47.24
2023-03-08T06:28:25.753Z,46.89
2023-03-08T06:30:53.594Z,47.76
2023-03-08T06:33:22.880Z,48.34
2023-03-08T06:35:56.954Z,48.53
2023-03-08T06:38:24.736Z,48.26
2023-03-08T06:40:53.739Z,48.05
2023-03-08T06:43:21.428Z,48.20
2023-03-08T06:45:49.154Z,48.23
2023-03-08T06:48:16.890Z,48.36
2023-03-08T06:50:44.604Z,48.23
2023-03-08T06:53:12.609Z,48.20
2023-03-08T06:55:40.522Z,47.94
2023-03-08T06:58:09.641Z,47.78
2023-03-08T07:00:37.343Z,47.51
2023-03-08T07:03:05.112Z,47.46
2023-03-08T07:05:32.806Z,47.66
2023-03-08T07:08:00.544Z,47.50
2023-03-08T07:10:28.223Z,47.45
2023-03-08T07:12:56.200Z,47.00
2023-03-08T07:15:25.287Z,46.95
2023-03-08T07:17:55.497Z,46.91
2023-03-08T07:20:23.685Z,46.97
2023-03-08T07:22:51.408Z,47.01
2023-03-08T07:25:20.150Z,46.93
2023-03-08T07:27:47.885Z,47.25
2023-03-08T07:30:16.662Z,47.45
2023-03-08T07:32:45.862Z,47.31
2023-03-08T07:35:14.613Z,46.95
2023-03-08T07:37:44.593Z,47.11
2023-03-08T07:40:13.377Z,46.87
2023-03-08T07:42:41.062Z,47.00
2023-03-08T07:45:09.876Z,46.89
2023-03-08T07:47:37.530Z,47.05
2023-03-08T07:50:06.957Z,46.90
2023-03-08T07:52:34.852Z,46.39
2023-03-08T07:55:03.291Z,46.79
2023-03-08T07:57:31.016Z,46.80
2023-03-08T07:59:58.686Z,46.54
2023-03-08T08:02:26.332Z,46.48
2023-03-08T08:04:54.029Z,46.39
2023-03-08T08:07:23.146Z,46.37
2023-03-08T08:09:50.819Z,46.68
2023-03-08T08:12:18.675Z,46.43
2023-03-08T08:14:46.461Z,46.39
2023-03-08T08:17:14.133Z,46.17
2023-03-08T08:19:41.821Z,46.06
2023-03-08T08:22:09.485Z,46.09
2023-03-08T08:24:38.554Z,46.17
2023-03-08T08:27:06.524Z,45.98
2023-03-08T08:29:34.218Z,45.87
2023-03-08T08:32:01.922Z,46.24
2023-03-08T08:34:29.594Z,45.99
2023-03-08T08:36:57.559Z,46.00
2023-03-08T08:39:25.294Z,46.02
2023-03-08T08:41:54.326Z,46.01
2023-03-08T08:44:21.992Z,46.03
2023-03-08T08:46:49.701Z,45.71
2023-03-08T08:49:17.368Z,45.95
2023-03-08T08:51:45.022Z,45.65
2023-03-08T08:54:12.775Z,45.66
2023-03-08T08:56:42.915Z,45.59
2023-03-08T08:59:12.672Z,45.58
2023-03-08T09:01:43.822Z,45.56
2023-03-08T09:04:12.351Z,45.76
2023-03-08T09:06:40.270Z,45.30
2023-03-08T09:09:07.963Z,45.77
2023-03-08T09:11:39.827Z,45.51
2023-03-08T09:14:14.613Z,45.42
2023-03-08T09:16:42.354Z,45.33
2023-03-08T09:19:10.053Z,45.52
2023-03-08T09:21:37.736Z,45.36
2023-03-08T09:24:06.674Z,45.36
2023-03-08T09:26:34.849Z,45.14
2023-03-08T09:29:05.321Z,45.43
2023-03-08T09:31:34.659Z,45.36
2023-03-08T09:34:04.627Z,45.26
2023-03-08T09:36:32.319Z,45.04
2023-03-08T09:38:59.992Z,45.10
2023-03-08T09:41:42.211Z,45.37
2023-03-08T09:44:48.255Z,45.46
2023-03-08T09:47:23.261Z,45.07
2023-03-08T09:49:53.036Z,45.23
2023-03-08T09:52:24.240Z,44.89
2023-03-08T09:54:52.116Z,44.94
2023-03-08T09:57:23.235Z,45.17
2023-03-08T09:59:53.349Z,45.10
2023-03-08T10:02:27.159Z,45.09
2023-03-08T10:05:11.899Z,45.09
2023-03-08T10:07:47.263Z,44.92
2023-03-08T10:10:22.987Z,45.00
2023-03-08T10:12:57.933Z,44.87
2023-03-08T10:15:26.098Z,44.66
2023-03-08T10:17:56.454Z,44.64
2023-03-08T10:20:25.305Z,44.61
2023-03-08T10:22:57.170Z,44.26
2023-03-08T10:25:26.843Z,44.80
2023-03-08T10:27:55.588Z,44.62
2023-03-08T10:30:24.558Z,44.52
2023-03-08T10:32:56.604Z,44.66
2023-03-08T10:35:33.768Z,44.51
2023-03-08T10:38:01.540Z,44.56
2023-03-08T10:40:29.248Z,44.28
2023-03-08T10:43:00.967Z,44.05
2023-03-08T10:45:29.467Z,44.46
2023-03-08T10:47:58.676Z,44.39
2023-03-08T10:50:27.250Z,44.43
2023-03-08T10:52:56.280Z,44.37
2023-03-08T10:55:24.792Z,44.27
2023-03-08T10:57:54.441Z,44.28
2023-03-08T11:00:35.143Z,44.11
2023-03-08T11:03:04.319Z,43.89
2023-03-08T11:05:31.979Z,43.79
2023-03-08T11:08:01.207Z,43.65
2023-03-08T11:10:29.430Z,43.73
2023-03-08T11:13:03.991Z,43.95
2023-03-08T11:15:32.176Z,43.75
2023-03-08T11:18:02.156Z,44.05
2023-03-08T11:20:31.316Z,43.81
2023-03-08T11:23:11.252Z,44.19
2023-03-08T11:25:43.954Z,43.79
2023-03-08T11:28:26.331Z,44.19
2023-03-08T11:31:01.334Z,43.66
2023-03-08T11:33:39.427Z,43.96
2023-03-08T11:36:07.746Z,43.65
2023-03-08T11:38:36.800Z,44.03
2023-03-08T11:41:08.305Z,43.80
2023-03-08T11:43:48.591Z,43.92
2023-03-08T11:46:18.947Z,43.78
2023-03-08T11:48:55.823Z,43.79
2023-03-08T11:51:25.748Z,43.99
2023-03-08T11:54:00.478Z,43.63
2023-03-08T11:56:40.283Z,43.52
2023-03-08T11:59:10.777Z,43.85
2023-03-08T12:01:39.928Z,43.74
2023-03-08T12:04:09.095Z,43.84
2023-03-08T12:06:40.060Z,43.40
2023-03-08T12:09:13.898Z,43.59
2023-03-08T12:11:42.487Z,43.49
2023-03-08T12:14:16.438Z,43.66
2023-03-08T12:16:47.830Z,43.65
2023-03-08T12:19:20.919Z,43.61
2023-03-08T12:21:50.529Z,43.62
2023-03-08T12:24:31.175Z,43.51
2023-03-08T12:27:00.917Z,43.68
2023-03-08T12:29:32.019Z,43.43
2023-03-08T12:31:59.840Z,43.44
2023-03-08T12:34:29.374Z,43.55
2023-03-08T12:36:57.089Z,43.13
2023-03-08T12:39:29.131Z,43.33
2023-03-08T12:42:01.542Z,43.30
2023-03-08T12:44:30.163Z,43.58
2023-03-08T12:47:03.754Z,43.91
2023-03-08T12:49:33.334Z,43.93
2023-03-08T12:52:03.088Z,43.88
2023-03-08T12:54:34.145Z,44.12
2023-03-08T12:57:02.488Z,43.95
2023-03-08T12:59:34.105Z,43.48
2023-03-08T13:02:03.746Z,43.53
2023-03-08T13:04:42.196Z,43.70
2023-03-08T13:07:27.711Z,43.68
2023-03-08T13:09:59.671Z,43.84
2023-03-08T13:12:37.274Z,44.01
2023-03-08T13:15:26.020Z,44.03
2023-03-08T13:18:06.118Z,43.52
2023-03-08T13:21:09.907Z,43.56
2023-03-08T13:23:39.081Z,43.52
2023-03-08T13:26:50.341Z,43.33
2023-03-08T13:29:19.958Z,43.73
2023-03-08T13:31:47.781Z,43.75
2023-03-08T13:34:26.627Z,43.53
2023-03-08T13:36:54.852Z,43.61
2023-03-08T13:39:23.352Z,43.72
2023-03-08T13:41:52.592Z,43.44
2023-03-08T13:44:22.312Z,43.67
2023-03-08T13:46:51.059Z,43.53
2023-03-08T13:49:20.277Z,43.35
2023-03-08T13:51:49.880Z,43.24
2023-03-08T13:54:18.691Z,42.94
2023-03-08T13:56:46.485Z,43.43
2023-03-08T13:59:19.674Z,43.52
2023-03-08T14:01:50.590Z,43.19
2023-03-08T14:04:20.331Z,43.01
2023-03-08T14:06:52.486Z,42.83
2023-03-08T14:09:20.173Z,43.23
2023-03-08T14:11:51.679Z,43.02
2023-03-08T14:14:23.709Z,43.06
2023-03-08T14:16:53.184Z,42.63
2023-03-08T14:19:23.917Z,43.06
2023-03-08T14:21:52.538Z,42.88
2023-03-08T14:24:21.543Z,42.77
2023-03-08T14:26:55.102Z,42.64
2023-03-08T14:29:24.452Z,42.95
2023-03-08T14:32:00.304Z,42.90
2023-03-08T14:34:29.186Z,42.39
2023-03-08T14:36:58.736Z,42.36
2023-03-08T14:39:28.137Z,42.52
2023-03-08T14:41:56.018Z,42.79
2023-03-08T14:44:26.044Z,42.86
2023-03-08T14:46:58.386Z,42.44
2023-03-08T14:49:27.081Z,42.41
2023-03-08T14:51:54.766Z,42.60
2023-03-08T14:54:33.289Z,42.44
2023-03-08T14:57:03.786Z,42.58
2023-03-08T14:59:32.831Z,42.94
2023-03-08T15:02:00.536Z,42.80
2023-03-08T15:04:28.328Z,43.00
2023-03-08T15:06:56.093Z,42.74
2023-03-08T15:09:24.170Z,42.97
2023-03-08T15:11:53.939Z,42.74
2023-03-08T15:14:21.618Z,43.01
2023-03-08T15:16:51.076Z,42.99
2023-03-08T15:19:18.781Z,42.99
2023-03-08T15:21:46.498Z,42.99
2023-03-08T15:24:17.310Z,42.86
2023-03-08T15:26:45.232Z,43.14
2023-03-08T15:29:20.372Z,42.67
2023-03-08T15:31:48.027Z,43.10
2023-03-08T15:34:17.055Z,43.08
2023-03-08T15:36:44.719Z,43.13
2023-03-08T15:39:12.918Z,43.13
2023-03-08T15:41:40.664Z,43.28
2023-03-08T15:44:08.403Z,43.09
2023-03-08T15:46:36.210Z,43.33
2023-03-08T15:49:03.979Z,43.45
2023-03-08T15:51:34.151Z,43.36
2023-03-08T15:54:02.053Z,43.40
2023-03-08T15:56:29.750Z,43.13
2023-03-08T15:58:57.486Z,43.29
2023-03-08T16:01:25.702Z,43.07
2023-03-08T16:03:53.986Z,43.26
2023-03-08T16:06:21.900Z,43.42
2023-03-08T16:08:50.938Z,43.47
2023-03-08T16:11:22.056Z,43.38
2023-03-08T16:13:51.171Z,42.99
2023-03-08T16:16:18.981Z,43.02
2023-03-08T16:18:46.913Z,43.63
2023-03-08T16:21:14.700Z,43.11
2023-03-08T16:23:42.607Z,43.55
2023-03-08T16:26:16.660Z,43.12
2023-03-08T16:28:45.494Z,43.44
2023-03-08T16:31:13.416Z,43.67
2023-03-08T16:33:41.158Z,43.33
2023-03-08T16:36:09.055Z,43.36
2023-03-08T16:38:36.731Z,43.30
2023-03-08T16:41:19.672Z,43.89
2023-03-08T16:43:48.898Z,43.63
2023-03-08T16:46:17.322Z,43.57
2023-03-08T16:48:45.137Z,43.43
2023-03-08T16:51:15.078Z,43.98
2023-03-08T16:53:42.794Z,43.99
2023-03-08T16:56:10.668Z,43.62
2023-03-08T16:58:38.364Z,44.03
2023-03-08T17:01:12.979Z,43.80
2023-03-08T17:03:40.674Z,43.62
2023-03-08T17:06:08.674Z,43.91
2023-03-08T17:08:36.370Z,43.92
2023-03-08T17:11:05.020Z,44.05
2023-03-08T17:13:32.873Z,44.24
2023-03-08T17:16:00.622Z,43.97
2023-03-08T17:18:29.694Z,43.73
2023-03-08T17:20:57.715Z,44.22
2023-03-08T17:23:25.517Z,43.91
2023-03-08T17:25:53.421Z,43.99
2023-03-08T17:28:21.226Z,44.44
2023-03-08T17:30:48.946Z,43.94
2023-03-08T17:33:17.612Z,44.11
2023-03-08T17:35:46.698Z,44.43
2023-03-08T17:38:14.377Z,44.13
2023-03-08T17:40:42.043Z,44.38
2023-03-08T17:43:09.698Z,44.27
2023-03-08T17:45:37.381Z,44.25
2023-03-08T17:48:05.142Z,44.60
2023-03-08T17:50:34.444Z,44.15
2023-03-08T17:53:03.501Z,44.57
2023-03-08T17:55:31.220Z,44.27
2023-03-08T17:57:58.898Z,44.48
2023-03-08T18:00:26.576Z,44.28
2023-03-08T18:02:54.592Z,44.24
2023-03-08T18:05:22.279Z,44.31
2023-03-08T18:07:49.983Z,44.32
2023-03-08T18:10:20.233Z,44.68
2023-03-08T18:12:47.887Z,44.53
2023-03-08T18:15:15.573Z,44.60
2023-03-08T18:17:43.269Z,44.75
2023-03-08T18:20:12.341Z,44.72
2023-03-08T18:22:40.655Z,44.83
2023-03-08T18:25:08.552Z,44.35
2023-03-08T18:27:39.461Z,44.31
2023-03-08T18:30:08.508Z,44.49
2023-03-08T18:32:36.265Z,44.64
2023-03-08T18:35:03.988Z,44.72
2023-03-08T18:37:31.834Z,44.48
2023-03-08T18:39:59.726Z,44.59
2023-03-08T18:42:27.564Z,44.47
2023-03-08T18:44:56.678Z,44.67
2023-03-08T18:47:24.384Z,44.90
2023-03-08T18:49:52.201Z,44.76
2023-03-08T18:52:19.911Z,44.94
2023-03-08T18:54:49.555Z,44.47
2023-03-08T18:57:17.347Z,44.91
2023-03-08T18:59:45.012Z,45.31
2023-03-08T19:02:16.088Z,45.22
2023-03-08T19:04:43.855Z,45.29
2023-03-08T19:07:12.818Z,45.12
2023-03-08T19:09:43.611Z,45.65
2023-03-08T19:12:11.478Z,45.43
2023-03-08T19:14:39.243Z,45.44
2023-03-08T19:17:07.100Z,45.65
2023-03-08T19:19:36.151Z,45.75
2023-03-08T19:22:04.858Z,45.43
2023-03-08T19:24:32.549Z,45.39
2023-03-08T19:27:00.378Z,45.75
2023-03-08T19:29:28.983Z,45.51
2023-03-08T19:31:57.421Z,45.39
2023-03-08T19:34:26.118Z,45.22
2023-03-08T19:36:55.269Z,45.21
2023-03-08T19:39:24.579Z,45.19
2023-03-08T19:41:52.824Z,45.33
2023-03-08T19:44:20.595Z,45.50
2023-03-08T19:46:48.301Z,45.40
2023-03-08T19:49:17.029Z,45.19
2023-03-08T19:51:47.251Z,45.45
2023-03-08T19:54:16.407Z,45.35
2023-03-08T19:56:44.100Z,45.37
2023-03-08T19:59:11.808Z,45.26
2023-03-08T20:01:39.475Z,45.52
2023-03-08T20:04:07.271Z,45.64
2023-03-08T20:06:36.372Z,45.33
2023-03-08T20:09:04.295Z,45.58
2023-03-08T20:11:33.374Z,46.00
2023-03-08T20:14:01.077Z,46.17
2023-03-08T20:16:28.835Z,45.80
2023-03-08T20:18:57.356Z,45.77
2023-03-08T20:21:28.372Z,46.11
2023-03-08T20:23:56.215Z,46.11
2023-03-08T20:26:24.011Z,45.81
2023-03-08T20:28:53.235Z,46.02
2023-03-08T20:31:20.948Z,45.89
2023-03-08T20:33:48.615Z,45.85
2023-03-08T20:36:16.323Z,45.78
2023-03-08T20:38:43.993Z,46.00
2023-03-08T20:41:15.651Z,45.85
2023-03-08T20:43:43.404Z,45.71
2023-03-08T20:46:13.908Z,46.21
2023-03-08T20:48:43.064Z,45.85
2023-03-08T20:51:12.581Z,46.00
2023-03-08T20:53:41.359Z,45.69
2023-03-08T20:56:10.178Z,46.13
2023-03-08T20:58:37.850Z,46.36
2023-03-08T21:01:12.160Z,46.00
2023-03-08T21:03:39.851Z,46.02
2023-03-08T21:06:12.163Z,46.13
2023-03-08T21:08:40.154Z,46.28
2023-03-08T21:11:07.850Z,45.93
2023-03-08T21:13:35.555Z,45.67
2023-03-08T21:16:03.873Z,45.75
2023-03-08T21:18:32.932Z,46.47
2023-03-08T21:21:00.609Z,46.22
2023-03-08T21:23:29.676Z,46.34
2023-03-08T21:26:01.011Z,46.44
2023-03-08T21:28:29.142Z,46.27
2023-03-08T21:30:56.836Z,45.91
2023-03-08T21:33:24.583Z,45.90
2023-03-08T21:35:53.656Z,46.13
2023-03-08T21:38:22.656Z,46.03
2023-03-08T21:40:52.044Z,45.74
2023-03-08T21:43:19.730Z,46.26
2023-03-08T21:45:47.423Z,45.99
2023-03-08T21:48:15.133Z,46.43
2023-03-08T21:50:42.896Z,46.25
2023-03-08T21:53:11.934Z,46.34
2023-03-08T21:55:39.923Z,46.43
2023-03-08T21:58:07.732Z,46.17
2023-03-08T22:00:35.491Z,46.00
2023-03-08T22:03:03.285Z,46.20
2023-03-08T22:05:31.070Z,46.12
2023-03-08T22:07:58.794Z,46.49
2023-03-08T22:10:27.814Z,46.58
2023-03-08T22:12:55.481Z,46.49
2023-03-08T22:15:23.161Z,46.49
2023-03-08T22:17:50.836Z,46.35
2023-03-08T22:20:18.732Z,46.06
2023-03-08T22:22:47.048Z,46.46
2023-03-08T22:25:14.783Z,46.12
2023-03-08T22:27:43.844Z,46.64
2023-03-08T22:30:12.778Z,46.38
2023-03-08T22:32:41.167Z,46.29
2023-03-08T22:35:09.857Z,46.25
2023-03-08T22:37:37.643Z,46.35
2023-03-08T22:40:06.650Z,46.55
2023-03-08T22:42:34.419Z,46.75
2023-03-08T22:45:03.553Z,46.85
2023-03-08T22:47:31.216Z,46.70
2023-03-08T22:49:58.947Z,47.11
2023-03-08T22:52:26.610Z,46.80
2023-03-08T22:54:54.264Z,46.73
2023-03-08T22:57:21.987Z,46.70
2023-03-08T22:59:49.631Z,46.77
2023-03-08T23:02:18.687Z,46.98
2023-03-08T23:04:46.408Z,46.78
2023-03-08T23:07:14.085Z,46.96
2023-03-08T23:09:41.825Z,46.93
2023-03-08T23:12:10.029Z,46.93
2023-03-08T23:14:37.783Z,46.94
2023-03-08T23:17:05.698Z,46.86
2023-03-08T23:19:34.759Z,47.11
2023-03-08T23:22:03.621Z,46.66
2023-03-08T23:24:31.291Z,47.09
2023-03-08T23:27:01.837Z,46.98
2023-03-08T23:29:29.520Z,46.97
2023-03-08T23:31:57.248Z,47.29
2023-03-08T23:34:24.945Z,47.41
2023-03-08T23:36:53.965Z,47.39
2023-03-08T23:39:21.650Z,47.60
2023-03-08T23:41:49.309Z,47.02
2023-03-08T23:44:18.192Z,47.39
2023-03-08T23:46:46.319Z,47.41
2023-03-08T23:49:16.515Z,47.77
2023-03-08T23:51:44.222Z,47.28
2023-03-08T23:54:13.257Z,47.61
2023-03-08T23:56:41.208Z,47.65
2023-03-08T23:59:11.416Z,47.57
